Portada
METAR-TAF:

METAR-TAF

Aeroports :

Boscobel Airport

Boscobel, Wisconsin, Estats Units d'Amèrica

latitud: 43-09-22N, longitud: 090-40-39W, altitud: 205 m

Observació

L'informe es va fer fa 11 minuts, a les 04:09 UTC
Vent calma
Temperatura 21°C
Humitat 94%
Pressió 1017 hPa
Visibilitat: 0.4 km
boira

METAR: KOVS 180409Z AUTO 00000KT 1/4SM FG VV002 21/20 A3004 RMK AO2 T02060200

Hora: 23:20 (04:20 UTC)


TAF: manca

Observacions i pronòstics meteorològics de més de 4000 aeroports (METAR i TAF).

Les estacions disponibles són els punts grocs i vermells al mapa.

Posi el ratolí al punt desitjat per veure el nom de l'estació.

Feu clic per veure les observacions i els pronòstics meteorològics.

Per canviar el mapa: feu clic els botons verds amb una creu de color negre per apropar; al botó verd amb un guió per allunyar la imatge; o en les fletxes verdes per a mapes adjacents.


METAR-TAF: